Wakulla Springs, Florida
Current Conditions -  °F | °C
As of 11:08 AM on Thursday 30 Oct 2014 (Local Time) from KTLH Reporting Station
Thunderstorm Thunderstorm  
Wind Chill: 66°   Ceiling: 7500
Heat Index: 66°   Visibility: 10mi
Dew Point: 46°   Wind: 8mph
Humidity: 49%   Direction: 350°N
Pressure: 30.03"   Gusts: NA
Location:  30.23°N, 84.31°W
Report Text: KTLH 301508Z 35007KT 10SM TS SCT035CB BKN075 BKN090 19/08 A3003 RMK AO2 TSB08 TS W MOV E
Loading
Personal Weather Stations






























Interactive Weather Map
Tropical Storm Tracking
New forecast layout! Learn more

10-Day Weather Forecast

Advertisements
Track Severe Weather on mobile